sensor_id;sensor_type;location;lat;lon;timestamp;P1;durP1;ratioP1;P2;durP2;ratioP2
18360;SDS011;9308;48.550;9.108;2023-04-06T00:00:59;12.50;;;11.40;;
18360;SDS011;9308;48.550;9.108;2023-04-06T00:03:24;12.63;;;11.53;;
18360;SDS011;9308;48.550;9.108;2023-04-06T00:05:50;13.40;;;12.30;;
18360;SDS011;9308;48.550;9.108;2023-04-06T00:08:16;13.53;;;12.43;;
18360;SDS011;9308;48.550;9.108;2023-04-06T00:10:41;13.50;;;12.30;;
18360;SDS011;9308;48.550;9.108;2023-04-06T00:13:07;13.10;;;11.90;;
18360;SDS011;9308;48.550;9.108;2023-04-06T00:15:33;12.67;;;11.63;;
18360;SDS011;9308;48.550;9.108;2023-04-06T00:17:58;11.50;;;10.47;;
18360;SDS011;9308;48.550;9.108;2023-04-06T00:20:24;11.73;;;10.83;;
18360;SDS011;9308;48.550;9.108;2023-04-06T00:22:50;12.00;;;11.00;;
18360;SDS011;9308;48.550;9.108;2023-04-06T00:25:15;12.37;;;11.30;;
18360;SDS011;9308;48.550;9.108;2023-04-06T00:27:41;12.90;;;11.80;;
18360;SDS011;9308;48.550;9.108;2023-04-06T00:30:07;12.83;;;11.73;;
18360;SDS011;9308;48.550;9.108;2023-04-06T00:32:33;12.37;;;11.20;;
18360;SDS011;9308;48.550;9.108;2023-04-06T00:35:01;12.07;;;11.07;;
18360;SDS011;9308;48.550;9.108;2023-04-06T00:37:30;12.20;;;11.10;;
18360;SDS011;9308;48.550;9.108;2023-04-06T00:39:56;11.70;;;10.70;;
18360;SDS011;9308;48.550;9.108;2023-04-06T00:42:21;12.17;;;11.10;;
18360;SDS011;9308;48.550;9.108;2023-04-06T00:45:00;12.43;;;11.37;;
18360;SDS011;9308;48.550;9.108;2023-04-06T00:47:26;11.97;;;10.97;;
18360;SDS011;9308;48.550;9.108;2023-04-06T00:49:53;11.37;;;10.50;;
18360;SDS011;9308;48.550;9.108;2023-04-06T00:52:19;12.00;;;10.77;;
18360;SDS011;9308;48.550;9.108;2023-04-06T00:54:45;11.57;;;10.50;;
18360;SDS011;9308;48.550;9.108;2023-04-06T00:57:11;11.80;;;10.70;;
18360;SDS011;9308;48.550;9.108;2023-04-06T00:59:37;12.37;;;11.27;;
18360;SDS011;9308;48.550;9.108;2023-04-06T01:02:03;11.43;;;10.47;;
18360;SDS011;9308;48.550;9.108;2023-04-06T01:04:28;11.83;;;10.70;;
18360;SDS011;9308;48.550;9.108;2023-04-06T01:06:54;11.77;;;10.70;;
18360;SDS011;9308;48.550;9.108;2023-04-06T01:09:19;12.10;;;11.20;;
18360;SDS011;9308;48.550;9.108;2023-04-06T01:11:45;11.50;;;10.50;;
18360;SDS011;9308;48.550;9.108;2023-04-06T01:14:10;10.57;;;9.67;;
18360;SDS011;9308;48.550;9.108;2023-04-06T01:16:36;10.83;;;9.93;;
18360;SDS011;9308;48.550;9.108;2023-04-06T01:19:08;11.83;;;10.50;;
18360;SDS011;9308;48.550;9.108;2023-04-06T01:21:35;10.67;;;9.77;;
18360;SDS011;9308;48.550;9.108;2023-04-06T01:24:01;11.43;;;10.53;;
18360;SDS011;9308;48.550;9.108;2023-04-06T01:26:27;11.23;;;10.37;;
18360;SDS011;9308;48.550;9.108;2023-04-06T01:28:54;10.67;;;9.87;;
18360;SDS011;9308;48.550;9.108;2023-04-06T01:31:20;12.03;;;10.90;;
18360;SDS011;9308;48.550;9.108;2023-04-06T01:33:46;11.17;;;10.17;;
18360;SDS011;9308;48.550;9.108;2023-04-06T01:36:12;11.93;;;10.73;;
18360;SDS011;9308;48.550;9.108;2023-04-06T01:38:37;12.27;;;11.30;;
18360;SDS011;9308;48.550;9.108;2023-04-06T01:41:03;11.97;;;10.93;;
18360;SDS011;9308;48.550;9.108;2023-04-06T01:43:28;12.07;;;10.97;;
18360;SDS011;9308;48.550;9.108;2023-04-06T01:45:53;12.97;;;11.97;;
18360;SDS011;9308;48.550;9.108;2023-04-06T01:48:19;12.93;;;11.97;;
18360;SDS011;9308;48.550;9.108;2023-04-06T01:50:45;12.13;;;11.20;;
18360;SDS011;9308;48.550;9.108;2023-04-06T01:53:10;14.67;;;13.37;;
18360;SDS011;9308;48.550;9.108;2023-04-06T01:55:36;13.37;;;12.23;;
18360;SDS011;9308;48.550;9.108;2023-04-06T01:58:01;12.83;;;11.80;;
18360;SDS011;9308;48.550;9.108;2023-04-06T02:00:26;12.87;;;11.57;;
18360;SDS011;9308;48.550;9.108;2023-04-06T02:02:52;14.67;;;13.47;;
18360;SDS011;9308;48.550;9.108;2023-04-06T02:05:18;14.17;;;12.97;;
18360;SDS011;9308;48.550;9.108;2023-04-06T02:07:44;12.43;;;11.43;;
18360;SDS011;9308;48.550;9.108;2023-04-06T02:10:13;13.43;;;12.17;;
18360;SDS011;9308;48.550;9.108;2023-04-06T02:12:39;13.53;;;12.50;;
18360;SDS011;9308;48.550;9.108;2023-04-06T02:15:05;12.40;;;11.40;;
18360;SDS011;9308;48.550;9.108;2023-04-06T02:17:31;13.60;;;12.50;;
18360;SDS011;9308;48.550;9.108;2023-04-06T02:19:56;13.03;;;11.83;;
18360;SDS011;9308;48.550;9.108;2023-04-06T02:22:22;13.83;;;12.53;;
18360;SDS011;9308;48.550;9.108;2023-04-06T02:24:47;12.90;;;11.80;;
18360;SDS011;9308;48.550;9.108;2023-04-06T02:27:13;13.33;;;12.13;;
18360;SDS011;9308;48.550;9.108;2023-04-06T02:29:39;12.77;;;11.63;;
18360;SDS011;9308;48.550;9.108;2023-04-06T02:32:05;14.73;;;12.83;;
18360;SDS011;9308;48.550;9.108;2023-04-06T02:34:31;13.20;;;12.10;;
18360;SDS011;9308;48.550;9.108;2023-04-06T02:36:56;14.00;;;12.70;;
18360;SDS011;9308;48.550;9.108;2023-04-06T02:39:21;14.80;;;13.50;;
18360;SDS011;9308;48.550;9.108;2023-04-06T02:41:47;15.10;;;13.80;;
18360;SDS011;9308;48.550;9.108;2023-04-06T02:44:13;14.30;;;13.10;;
18360;SDS011;9308;48.550;9.108;2023-04-06T02:46:38;14.90;;;13.70;;
18360;SDS011;9308;48.550;9.108;2023-04-06T02:49:04;14.63;;;13.23;;
18360;SDS011;9308;48.550;9.108;2023-04-06T02:51:30;15.67;;;14.27;;
18360;SDS011;9308;48.550;9.108;2023-04-06T02:53:56;14.13;;;12.90;;
18360;SDS011;9308;48.550;9.108;2023-04-06T02:56:21;14.80;;;13.57;;
18360;SDS011;9308;48.550;9.108;2023-04-06T02:58:47;15.77;;;14.27;;
18360;SDS011;9308;48.550;9.108;2023-04-06T03:01:12;16.17;;;14.87;;
18360;SDS011;9308;48.550;9.108;2023-04-06T03:03:38;15.70;;;14.27;;
18360;SDS011;9308;48.550;9.108;2023-04-06T03:06:03;15.37;;;14.13;;
18360;SDS011;9308;48.550;9.108;2023-04-06T03:08:29;15.33;;;14.03;;
18360;SDS011;9308;48.550;9.108;2023-04-06T03:10:55;16.53;;;15.13;;
18360;SDS011;9308;48.550;9.108;2023-04-06T03:13:21;16.13;;;14.70;;
18360;SDS011;9308;48.550;9.108;2023-04-06T03:15:46;16.40;;;14.87;;
18360;SDS011;9308;48.550;9.108;2023-04-06T03:18:12;15.90;;;14.30;;
18360;SDS011;9308;48.550;9.108;2023-04-06T03:20:37;16.83;;;15.23;;
18360;SDS011;9308;48.550;9.108;2023-04-06T03:23:03;17.13;;;15.43;;
18360;SDS011;9308;48.550;9.108;2023-04-06T03:25:28;16.30;;;14.80;;
18360;SDS011;9308;48.550;9.108;2023-04-06T03:27:55;16.13;;;14.73;;
18360;SDS011;9308;48.550;9.108;2023-04-06T03:30:21;16.10;;;14.60;;
18360;SDS011;9308;48.550;9.108;2023-04-06T03:32:46;14.90;;;13.70;;
18360;SDS011;9308;48.550;9.108;2023-04-06T03:35:12;16.43;;;15.00;;
18360;SDS011;9308;48.550;9.108;2023-04-06T03:37:38;15.77;;;14.37;;
18360;SDS011;9308;48.550;9.108;2023-04-06T03:40:04;16.63;;;15.13;;
18360;SDS011;9308;48.550;9.108;2023-04-06T03:42:30;16.70;;;15.07;;
18360;SDS011;9308;48.550;9.108;2023-04-06T03:44:57;15.93;;;14.43;;
18360;SDS011;9308;48.550;9.108;2023-04-06T03:47:23;15.10;;;13.80;;
18360;SDS011;9308;48.550;9.108;2023-04-06T03:49:49;16.50;;;14.90;;
18360;SDS011;9308;48.550;9.108;2023-04-06T03:52:14;16.90;;;15.40;;
18360;SDS011;9308;48.550;9.108;2023-04-06T03:54:40;18.03;;;16.30;;
18360;SDS011;9308;48.550;9.108;2023-04-06T03:57:05;17.00;;;15.50;;
18360;SDS011;9308;48.550;9.108;2023-04-06T03:59:31;30.20;;;16.97;;
18360;SDS011;9308;48.550;9.108;2023-04-06T04:01:56;19.13;;;17.47;;
18360;SDS011;9308;48.550;9.108;2023-04-06T04:04:22;19.00;;;17.20;;
18360;SDS011;9308;48.550;9.108;2023-04-06T04:06:47;18.43;;;16.63;;
18360;SDS011;9308;48.550;9.108;2023-04-06T04:09:13;19.00;;;17.30;;
18360;SDS011;9308;48.550;9.108;2023-04-06T04:11:38;18.00;;;16.33;;
18360;SDS011;9308;48.550;9.108;2023-04-06T04:14:03;18.40;;;16.80;;
18360;SDS011;9308;48.550;9.108;2023-04-06T04:16:30;17.67;;;15.97;;
18360;SDS011;9308;48.550;9.108;2023-04-06T04:18:55;17.70;;;16.00;;
18360;SDS011;9308;48.550;9.108;2023-04-06T04:21:21;18.57;;;16.87;;
18360;SDS011;9308;48.550;9.108;2023-04-06T04:23:46;18.23;;;16.73;;
18360;SDS011;9308;48.550;9.108;2023-04-06T04:26:11;18.73;;;17.03;;
18360;SDS011;9308;48.550;9.108;2023-04-06T04:28:37;18.90;;;17.00;;
18360;SDS011;9308;48.550;9.108;2023-04-06T04:31:02;17.23;;;15.57;;
18360;SDS011;9308;48.550;9.108;2023-04-06T04:33:28;18.10;;;16.50;;
18360;SDS011;9308;48.550;9.108;2023-04-06T04:35:53;16.47;;;15.03;;
18360;SDS011;9308;48.550;9.108;2023-04-06T04:38:18;16.73;;;15.17;;
18360;SDS011;9308;48.550;9.108;2023-04-06T04:40:44;18.80;;;17.00;;
18360;SDS011;9308;48.550;9.108;2023-04-06T04:43:10;17.40;;;15.90;;
18360;SDS011;9308;48.550;9.108;2023-04-06T04:45:35;19.10;;;17.20;;
18360;SDS011;9308;48.550;9.108;2023-04-06T04:48:01;18.63;;;16.83;;
18360;SDS011;9308;48.550;9.108;2023-04-06T04:50:26;20.23;;;18.40;;
18360;SDS011;9308;48.550;9.108;2023-04-06T04:52:52;19.00;;;17.30;;
18360;SDS011;9308;48.550;9.108;2023-04-06T04:55:17;19.77;;;18.10;;
18360;SDS011;9308;48.550;9.108;2023-04-06T04:57:43;19.30;;;17.80;;
18360;SDS011;9308;48.550;9.108;2023-04-06T05:00:09;19.20;;;17.50;;
18360;SDS011;9308;48.550;9.108;2023-04-06T05:02:35;20.43;;;18.63;;
18360;SDS011;9308;48.550;9.108;2023-04-06T05:05:00;19.93;;;18.20;;
18360;SDS011;9308;48.550;9.108;2023-04-06T05:07:26;19.57;;;17.73;;
18360;SDS011;9308;48.550;9.108;2023-04-06T05:09:51;18.93;;;17.23;;
18360;SDS011;9308;48.550;9.108;2023-04-06T05:12:18;19.40;;;17.80;;
18360;SDS011;9308;48.550;9.108;2023-04-06T05:14:44;20.10;;;18.17;;
18360;SDS011;9308;48.550;9.108;2023-04-06T05:17:09;19.00;;;17.20;;
18360;SDS011;9308;48.550;9.108;2023-04-06T05:19:35;18.57;;;16.90;;
18360;SDS011;9308;48.550;9.108;2023-04-06T05:22:00;17.90;;;16.20;;
18360;SDS011;9308;48.550;9.108;2023-04-06T05:24:26;18.20;;;16.43;;
18360;SDS011;9308;48.550;9.108;2023-04-06T05:26:51;17.13;;;15.70;;
18360;SDS011;9308;48.550;9.108;2023-04-06T05:29:17;19.27;;;16.67;;
18360;SDS011;9308;48.550;9.108;2023-04-06T05:31:43;18.10;;;16.33;;
18360;SDS011;9308;48.550;9.108;2023-04-06T05:34:09;19.07;;;17.30;;
18360;SDS011;9308;48.550;9.108;2023-04-06T05:36:34;19.40;;;17.67;;
18360;SDS011;9308;48.550;9.108;2023-04-06T05:39:00;19.70;;;17.90;;
18360;SDS011;9308;48.550;9.108;2023-04-06T05:41:25;18.67;;;16.90;;
18360;SDS011;9308;48.550;9.108;2023-04-06T05:43:51;17.60;;;16.10;;
18360;SDS011;9308;48.550;9.108;2023-04-06T05:46:16;19.03;;;17.50;;
18360;SDS011;9308;48.550;9.108;2023-04-06T05:48:42;20.20;;;18.30;;
18360;SDS011;9308;48.550;9.108;2023-04-06T05:51:07;18.40;;;16.80;;
18360;SDS011;9308;48.550;9.108;2023-04-06T05:53:33;18.67;;;17.03;;
18360;SDS011;9308;48.550;9.108;2023-04-06T05:56:01;18.80;;;16.97;;
18360;SDS011;9308;48.550;9.108;2023-04-06T05:58:27;18.83;;;17.23;;
18360;SDS011;9308;48.550;9.108;2023-04-06T06:00:59;19.97;;;18.10;;
18360;SDS011;9308;48.550;9.108;2023-04-06T06:03:25;18.10;;;16.60;;
18360;SDS011;9308;48.550;9.108;2023-04-06T06:05:51;18.40;;;16.80;;
18360;SDS011;9308;48.550;9.108;2023-04-06T06:08:17;18.40;;;16.67;;
18360;SDS011;9308;48.550;9.108;2023-04-06T06:10:42;20.13;;;18.17;;
18360;SDS011;9308;48.550;9.108;2023-04-06T06:13:08;19.03;;;17.33;;
18360;SDS011;9308;48.550;9.108;2023-04-06T06:15:33;20.20;;;18.50;;
18360;SDS011;9308;48.550;9.108;2023-04-06T06:17:59;18.90;;;17.37;;
18360;SDS011;9308;48.550;9.108;2023-04-06T06:20:24;20.73;;;18.63;;
18360;SDS011;9308;48.550;9.108;2023-04-06T06:22:50;20.07;;;18.20;;
18360;SDS011;9308;48.550;9.108;2023-04-06T06:25:15;19.60;;;17.83;;
18360;SDS011;9308;48.550;9.108;2023-04-06T06:27:41;20.63;;;18.50;;
18360;SDS011;9308;48.550;9.108;2023-04-06T06:30:07;19.87;;;17.93;;
18360;SDS011;9308;48.550;9.108;2023-04-06T06:32:33;19.83;;;18.17;;
18360;SDS011;9308;48.550;9.108;2023-04-06T06:34:58;18.63;;;16.83;;
18360;SDS011;9308;48.550;9.108;2023-04-06T06:37:24;17.77;;;16.23;;
18360;SDS011;9308;48.550;9.108;2023-04-06T06:39:50;19.20;;;17.40;;
18360;SDS011;9308;48.550;9.108;2023-04-06T06:42:15;17.33;;;15.83;;
18360;SDS011;9308;48.550;9.108;2023-04-06T06:44:41;17.90;;;16.30;;
18360;SDS011;9308;48.550;9.108;2023-04-06T06:47:06;16.60;;;15.10;;
18360;SDS011;9308;48.550;9.108;2023-04-06T06:49:31;16.70;;;15.23;;
18360;SDS011;9308;48.550;9.108;2023-04-06T06:51:57;18.00;;;16.30;;
18360;SDS011;9308;48.550;9.108;2023-04-06T06:54:22;16.60;;;15.00;;
18360;SDS011;9308;48.550;9.108;2023-04-06T06:56:47;15.13;;;13.73;;
18360;SDS011;9308;48.550;9.108;2023-04-06T06:59:13;15.93;;;14.53;;
18360;SDS011;9308;48.550;9.108;2023-04-06T07:01:38;16.10;;;14.53;;
18360;SDS011;9308;48.550;9.108;2023-04-06T07:04:04;17.00;;;15.30;;
18360;SDS011;9308;48.550;9.108;2023-04-06T07:06:29;16.03;;;14.67;;
18360;SDS011;9308;48.550;9.108;2023-04-06T07:08:55;16.13;;;14.60;;
18360;SDS011;9308;48.550;9.108;2023-04-06T07:11:20;16.00;;;14.30;;
18360;SDS011;9308;48.550;9.108;2023-04-06T07:13:46;17.40;;;15.60;;
18360;SDS011;9308;48.550;9.108;2023-04-06T07:16:11;17.07;;;15.47;;
18360;SDS011;9308;48.550;9.108;2023-04-06T07:18:37;15.50;;;14.13;;
18360;SDS011;9308;48.550;9.108;2023-04-06T07:21:02;16.20;;;14.80;;
18360;SDS011;9308;48.550;9.108;2023-04-06T07:23:28;14.80;;;13.50;;
18360;SDS011;9308;48.550;9.108;2023-04-06T07:25:53;16.40;;;14.87;;
18360;SDS011;9308;48.550;9.108;2023-04-06T07:28:19;16.20;;;14.60;;
18360;SDS011;9308;48.550;9.108;2023-04-06T07:30:45;16.50;;;15.10;;
18360;SDS011;9308;48.550;9.108;2023-04-06T07:33:10;15.77;;;14.27;;
18360;SDS011;9308;48.550;9.108;2023-04-06T07:35:36;16.53;;;15.00;;
18360;SDS011;9308;48.550;9.108;2023-04-06T07:38:02;15.73;;;14.20;;
18360;SDS011;9308;48.550;9.108;2023-04-06T07:40:27;15.60;;;14.30;;
18360;SDS011;9308;48.550;9.108;2023-04-06T07:42:53;15.70;;;14.20;;
18360;SDS011;9308;48.550;9.108;2023-04-06T07:45:19;15.70;;;14.10;;
18360;SDS011;9308;48.550;9.108;2023-04-06T07:47:44;14.90;;;13.57;;
18360;SDS011;9308;48.550;9.108;2023-04-06T07:50:10;16.90;;;15.40;;
18360;SDS011;9308;48.550;9.108;2023-04-06T07:52:36;17.10;;;15.50;;
18360;SDS011;9308;48.550;9.108;2023-04-06T07:55:01;15.70;;;14.30;;
18360;SDS011;9308;48.550;9.108;2023-04-06T07:57:27;15.90;;;14.40;;
18360;SDS011;9308;48.550;9.108;2023-04-06T07:59:52;15.77;;;14.37;;
18360;SDS011;9308;48.550;9.108;2023-04-06T08:02:18;14.60;;;13.30;;
18360;SDS011;9308;48.550;9.108;2023-04-06T08:04:43;14.60;;;13.30;;
18360;SDS011;9308;48.550;9.108;2023-04-06T08:07:10;15.73;;;14.20;;
18360;SDS011;9308;48.550;9.108;2023-04-06T08:09:35;14.70;;;13.30;;
18360;SDS011;9308;48.550;9.108;2023-04-06T08:12:01;15.50;;;14.00;;
18360;SDS011;9308;48.550;9.108;2023-04-06T08:14:27;14.70;;;13.40;;
18360;SDS011;9308;48.550;9.108;2023-04-06T08:16:52;15.10;;;13.70;;
18360;SDS011;9308;48.550;9.108;2023-04-06T08:19:17;14.80;;;13.40;;
18360;SDS011;9308;48.550;9.108;2023-04-06T08:21:44;13.70;;;12.50;;
18360;SDS011;9308;48.550;9.108;2023-04-06T08:24:11;15.90;;;14.37;;
18360;SDS011;9308;48.550;9.108;2023-04-06T08:26:37;15.57;;;14.00;;
18360;SDS011;9308;48.550;9.108;2023-04-06T08:29:02;15.67;;;14.23;;
18360;SDS011;9308;48.550;9.108;2023-04-06T08:31:29;13.73;;;12.50;;
18360;SDS011;9308;48.550;9.108;2023-04-06T08:33:55;14.63;;;13.33;;
18360;SDS011;9308;48.550;9.108;2023-04-06T08:36:21;14.27;;;12.87;;
18360;SDS011;9308;48.550;9.108;2023-04-06T08:38:48;14.47;;;13.17;;
18360;SDS011;9308;48.550;9.108;2023-04-06T08:41:15;13.80;;;12.50;;
18360;SDS011;9308;48.550;9.108;2023-04-06T08:43:43;13.17;;;11.87;;
18360;SDS011;9308;48.550;9.108;2023-04-06T08:46:11;12.13;;;10.83;;
18360;SDS011;9308;48.550;9.108;2023-04-06T08:48:41;11.80;;;10.53;;
18360;SDS011;9308;48.550;9.108;2023-04-06T08:51:07;12.67;;;11.37;;
18360;SDS011;9308;48.550;9.108;2023-04-06T08:53:34;12.13;;;10.73;;
18360;SDS011;9308;48.550;9.108;2023-04-06T08:56:00;11.73;;;10.67;;
18360;SDS011;9308;48.550;9.108;2023-04-06T08:58:28;12.37;;;11.17;;
18360;SDS011;9308;48.550;9.108;2023-04-06T09:00:57;12.40;;;11.20;;
18360;SDS011;9308;48.550;9.108;2023-04-06T09:03:24;12.13;;;10.80;;
18360;SDS011;9308;48.550;9.108;2023-04-06T09:05:52;13.20;;;11.90;;
18360;SDS011;9308;48.550;9.108;2023-04-06T09:08:19;12.13;;;10.90;;
18360;SDS011;9308;48.550;9.108;2023-04-06T09:10:44;12.10;;;10.90;;
18360;SDS011;9308;48.550;9.108;2023-04-06T09:13:10;11.87;;;10.67;;
18360;SDS011;9308;48.550;9.108;2023-04-06T09:15:36;13.60;;;12.27;;
18360;SDS011;9308;48.550;9.108;2023-04-06T09:18:02;12.60;;;11.37;;
18360;SDS011;9308;48.550;9.108;2023-04-06T09:20:28;11.87;;;10.67;;
18360;SDS011;9308;48.550;9.108;2023-04-06T09:22:53;12.77;;;11.47;;
18360;SDS011;9308;48.550;9.108;2023-04-06T09:25:20;13.10;;;11.17;;
18360;SDS011;9308;48.550;9.108;2023-04-06T09:27:48;13.30;;;10.43;;
18360;SDS011;9308;48.550;9.108;2023-04-06T09:30:22;13.30;;;11.23;;
18360;SDS011;9308;48.550;9.108;2023-04-06T09:32:50;12.80;;;10.90;;
18360;SDS011;9308;48.550;9.108;2023-04-06T09:35:17;11.57;;;10.40;;
18360;SDS011;9308;48.550;9.108;2023-04-06T09:37:45;11.40;;;10.30;;
18360;SDS011;9308;48.550;9.108;2023-04-06T09:40:13;11.70;;;10.60;;
18360;SDS011;9308;48.550;9.108;2023-04-06T09:42:41;11.90;;;10.70;;
18360;SDS011;9308;48.550;9.108;2023-04-06T09:45:07;12.57;;;11.27;;
18360;SDS011;9308;48.550;9.108;2023-04-06T09:47:34;11.50;;;10.40;;
18360;SDS011;9308;48.550;9.108;2023-04-06T09:50:01;11.67;;;10.57;;
18360;SDS011;9308;48.550;9.108;2023-04-06T09:52:47;12.20;;;11.00;;
18360;SDS011;9308;48.550;9.108;2023-04-06T09:55:17;11.43;;;10.33;;
18360;SDS011;9308;48.550;9.108;2023-04-06T09:57:55;10.10;;;9.10;;
18360;SDS011;9308;48.550;9.108;2023-04-06T10:00:26;9.57;;;8.57;;
18360;SDS011;9308;48.550;9.108;2023-04-06T10:02:58;6.60;;;6.00;;
18360;SDS011;9308;48.550;9.108;2023-04-06T10:05:43;5.63;;;4.90;;
18360;SDS011;9308;48.550;9.108;2023-04-06T10:08:28;4.97;;;4.57;;
18360;SDS011;9308;48.550;9.108;2023-04-06T10:10:56;5.60;;;5.10;;
18360;SDS011;9308;48.550;9.108;2023-04-06T10:13:23;5.03;;;4.63;;
18360;SDS011;9308;48.550;9.108;2023-04-06T10:15:49;5.10;;;4.70;;
18360;SDS011;9308;48.550;9.108;2023-04-06T10:18:16;4.93;;;4.53;;
18360;SDS011;9308;48.550;9.108;2023-04-06T10:20:53;7.03;;;6.33;;
18360;SDS011;9308;48.550;9.108;2023-04-06T10:26:00;7.90;;;7.20;;
18360;SDS011;9308;48.550;9.108;2023-04-06T10:28:31;5.87;;;5.27;;
18360;SDS011;9308;48.550;9.108;2023-04-06T10:31:00;5.60;;;5.10;;
18360;SDS011;9308;48.550;9.108;2023-04-06T10:33:27;6.47;;;5.90;;
18360;SDS011;9308;48.550;9.108;2023-04-06T10:35:53;7.07;;;6.23;;
18360;SDS011;9308;48.550;9.108;2023-04-06T10:38:20;6.77;;;6.13;;
18360;SDS011;9308;48.550;9.108;2023-04-06T10:40:47;6.70;;;6.07;;
18360;SDS011;9308;48.550;9.108;2023-04-06T10:43:19;6.80;;;6.20;;
18360;SDS011;9308;48.550;9.108;2023-04-06T10:45:56;6.57;;;5.87;;
18360;SDS011;9308;48.550;9.108;2023-04-06T10:48:22;6.73;;;6.13;;
18360;SDS011;9308;48.550;9.108;2023-04-06T10:50:49;6.67;;;5.97;;
18360;SDS011;9308;48.550;9.108;2023-04-06T10:53:21;6.77;;;6.17;;
18360;SDS011;9308;48.550;9.108;2023-04-06T10:55:50;7.60;;;6.90;;
18360;SDS011;9308;48.550;9.108;2023-04-06T10:58:16;6.60;;;6.00;;
18360;SDS011;9308;48.550;9.108;2023-04-06T11:00:45;7.20;;;6.10;;
18360;SDS011;9308;48.550;9.108;2023-04-06T11:03:12;6.67;;;6.17;;
18360;SDS011;9308;48.550;9.108;2023-04-06T11:05:44;6.60;;;5.97;;
18360;SDS011;9308;48.550;9.108;2023-04-06T11:08:31;6.70;;;5.97;;
18360;SDS011;9308;48.550;9.108;2023-04-06T11:11:07;8.00;;;7.17;;
18360;SDS011;9308;48.550;9.108;2023-04-06T11:16:04;7.30;;;6.60;;
18360;SDS011;9308;48.550;9.108;2023-04-06T11:18:29;8.13;;;7.37;;
18360;SDS011;9308;48.550;9.108;2023-04-06T11:20:56;7.73;;;7.07;;
18360;SDS011;9308;48.550;9.108;2023-04-06T11:23:22;7.70;;;6.50;;
18360;SDS011;9308;48.550;9.108;2023-04-06T11:25:50;9.27;;;8.37;;
18360;SDS011;9308;48.550;9.108;2023-04-06T11:28:17;7.73;;;7.03;;
18360;SDS011;9308;48.550;9.108;2023-04-06T11:30:43;8.37;;;7.20;;
18360;SDS011;9308;48.550;9.108;2023-04-06T11:33:08;6.93;;;6.43;;
18360;SDS011;9308;48.550;9.108;2023-04-06T11:35:33;7.77;;;6.83;;
18360;SDS011;9308;48.550;9.108;2023-04-06T11:38:02;7.40;;;6.70;;
18360;SDS011;9308;48.550;9.108;2023-04-06T11:40:28;6.67;;;6.07;;
18360;SDS011;9308;48.550;9.108;2023-04-06T11:42:55;5.43;;;5.03;;
18360;SDS011;9308;48.550;9.108;2023-04-06T11:45:21;5.60;;;5.10;;
18360;SDS011;9308;48.550;9.108;2023-04-06T11:47:57;5.53;;;5.13;;
18360;SDS011;9308;48.550;9.108;2023-04-06T11:50:24;6.13;;;5.57;;
18360;SDS011;9308;48.550;9.108;2023-04-06T11:52:59;5.33;;;4.93;;
18360;SDS011;9308;48.550;9.108;2023-04-06T11:55:26;4.57;;;4.10;;
18360;SDS011;9308;48.550;9.108;2023-04-06T11:57:51;3.87;;;3.53;;
18360;SDS011;9308;48.550;9.108;2023-04-06T12:00:17;4.30;;;3.90;;
18360;SDS011;9308;48.550;9.108;2023-04-06T12:02:46;3.63;;;3.33;;
18360;SDS011;9308;48.550;9.108;2023-04-06T12:05:13;5.10;;;4.70;;
18360;SDS011;9308;48.550;9.108;2023-04-06T12:07:39;5.37;;;4.97;;
18360;SDS011;9308;48.550;9.108;2023-04-06T12:10:05;5.20;;;4.80;;
18360;SDS011;9308;48.550;9.108;2023-04-06T12:12:30;5.20;;;4.80;;
18360;SDS011;9308;48.550;9.108;2023-04-06T12:14:56;5.90;;;5.40;;
18360;SDS011;9308;48.550;9.108;2023-04-06T12:17:22;5.57;;;5.17;;
18360;SDS011;9308;48.550;9.108;2023-04-06T12:19:48;5.20;;;4.77;;
18360;SDS011;9308;48.550;9.108;2023-04-06T12:22:14;5.60;;;5.10;;
18360;SDS011;9308;48.550;9.108;2023-04-06T12:24:40;5.23;;;4.83;;
18360;SDS011;9308;48.550;9.108;2023-04-06T12:27:06;4.97;;;4.60;;
18360;SDS011;9308;48.550;9.108;2023-04-06T12:29:31;6.57;;;5.97;;
18360;SDS011;9308;48.550;9.108;2023-04-06T12:31:57;5.13;;;4.73;;
18360;SDS011;9308;48.550;9.108;2023-04-06T12:34:22;5.20;;;4.80;;
18360;SDS011;9308;48.550;9.108;2023-04-06T12:36:48;5.33;;;4.93;;
18360;SDS011;9308;48.550;9.108;2023-04-06T12:39:13;5.80;;;5.30;;
18360;SDS011;9308;48.550;9.108;2023-04-06T12:41:39;5.93;;;5.43;;
18360;SDS011;9308;48.550;9.108;2023-04-06T12:44:06;5.63;;;5.23;;
18360;SDS011;9308;48.550;9.108;2023-04-06T12:46:31;6.17;;;5.60;;
18360;SDS011;9308;48.550;9.108;2023-04-06T12:48:57;5.27;;;4.87;;
18360;SDS011;9308;48.550;9.108;2023-04-06T12:51:24;5.37;;;4.97;;
18360;SDS011;9308;48.550;9.108;2023-04-06T12:53:52;6.13;;;5.57;;
18360;SDS011;9308;48.550;9.108;2023-04-06T12:56:18;5.77;;;5.27;;
18360;SDS011;9308;48.550;9.108;2023-04-06T12:58:44;5.47;;;5.07;;
18360;SDS011;9308;48.550;9.108;2023-04-06T13:01:10;6.57;;;5.97;;
18360;SDS011;9308;48.550;9.108;2023-04-06T13:03:42;6.73;;;6.00;;
18360;SDS011;9308;48.550;9.108;2023-04-06T13:06:07;7.13;;;5.60;;
18360;SDS011;9308;48.550;9.108;2023-04-06T13:08:34;5.93;;;5.43;;
18360;SDS011;9308;48.550;9.108;2023-04-06T13:11:00;6.23;;;5.73;;
18360;SDS011;9308;48.550;9.108;2023-04-06T13:13:26;5.90;;;5.40;;
18360;SDS011;9308;48.550;9.108;2023-04-06T13:15:53;6.60;;;6.00;;
18360;SDS011;9308;48.550;9.108;2023-04-06T13:18:20;6.03;;;5.53;;
18360;SDS011;9308;48.550;9.108;2023-04-06T13:20:47;6.13;;;5.53;;
18360;SDS011;9308;48.550;9.108;2023-04-06T13:23:13;5.33;;;4.93;;
18360;SDS011;9308;48.550;9.108;2023-04-06T13:25:39;5.03;;;4.63;;
18360;SDS011;9308;48.550;9.108;2023-04-06T13:28:05;5.53;;;5.10;;
18360;SDS011;9308;48.550;9.108;2023-04-06T13:30:30;5.37;;;4.87;;
18360;SDS011;9308;48.550;9.108;2023-04-06T13:32:56;6.30;;;5.80;;
18360;SDS011;9308;48.550;9.108;2023-04-06T13:35:21;6.03;;;5.40;;
18360;SDS011;9308;48.550;9.108;2023-04-06T13:37:47;5.20;;;4.80;;
18360;SDS011;9308;48.550;9.108;2023-04-06T13:40:13;5.40;;;5.00;;
18360;SDS011;9308;48.550;9.108;2023-04-06T13:42:39;5.20;;;4.80;;
18360;SDS011;9308;48.550;9.108;2023-04-06T13:45:06;5.77;;;4.93;;
18360;SDS011;9308;48.550;9.108;2023-04-06T13:47:32;5.10;;;4.70;;
18360;SDS011;9308;48.550;9.108;2023-04-06T13:49:57;5.70;;;5.30;;
18360;SDS011;9308;48.550;9.108;2023-04-06T13:52:22;6.00;;;5.50;;
18360;SDS011;9308;48.550;9.108;2023-04-06T13:54:48;6.13;;;5.63;;
18360;SDS011;9308;48.550;9.108;2023-04-06T13:57:15;6.57;;;5.97;;
18360;SDS011;9308;48.550;9.108;2023-04-06T13:59:41;6.20;;;5.63;;
18360;SDS011;9308;48.550;9.108;2023-04-06T14:02:07;6.63;;;6.10;;
18360;SDS011;9308;48.550;9.108;2023-04-06T14:04:33;7.17;;;6.57;;
18360;SDS011;9308;48.550;9.108;2023-04-06T14:06:59;5.97;;;5.47;;
18360;SDS011;9308;48.550;9.108;2023-04-06T14:09:26;7.10;;;6.50;;
18360;SDS011;9308;48.550;9.108;2023-04-06T14:11:52;7.07;;;6.47;;
18360;SDS011;9308;48.550;9.108;2023-04-06T14:14:18;6.53;;;6.03;;
18360;SDS011;9308;48.550;9.108;2023-04-06T14:16:44;6.93;;;6.27;;
18360;SDS011;9308;48.550;9.108;2023-04-06T14:19:13;6.33;;;5.83;;
18360;SDS011;9308;48.550;9.108;2023-04-06T14:21:43;7.33;;;6.70;;
18360;SDS011;9308;48.550;9.108;2023-04-06T14:24:09;7.07;;;6.37;;
18360;SDS011;9308;48.550;9.108;2023-04-06T14:26:36;5.97;;;5.57;;
18360;SDS011;9308;48.550;9.108;2023-04-06T14:29:02;6.67;;;6.17;;
18360;SDS011;9308;48.550;9.108;2023-04-06T14:31:29;7.10;;;6.60;;
18360;SDS011;9308;48.550;9.108;2023-04-06T14:33:56;7.40;;;6.80;;
18360;SDS011;9308;48.550;9.108;2023-04-06T14:36:21;7.33;;;6.83;;
18360;SDS011;9308;48.550;9.108;2023-04-06T14:38:47;8.13;;;7.30;;
18360;SDS011;9308;48.550;9.108;2023-04-06T14:41:16;7.40;;;6.80;;
18360;SDS011;9308;48.550;9.108;2023-04-06T14:43:45;7.00;;;6.50;;